createdAt,value
2019-03-21T00:02:17.196Z,0.90
2019-03-21T00:04:44.041Z,1.00
2019-03-21T00:07:10.986Z,0.90
2019-03-21T00:09:38.752Z,0.90
2019-03-21T00:12:05.593Z,0.97
2019-03-21T00:14:54.347Z,1.00
2019-03-21T00:17:26.018Z,0.77
2019-03-21T00:19:52.764Z,0.87
2019-03-21T00:22:19.587Z,0.80
2019-03-21T00:24:46.328Z,0.70
2019-03-21T00:27:13.173Z,0.63
2019-03-21T00:29:40.116Z,1.00
2019-03-21T00:32:07.780Z,0.90
2019-03-21T00:34:34.574Z,0.73
2019-03-21T00:37:02.183Z,0.90
2019-03-21T00:39:32.968Z,0.70
2019-03-21T00:41:56.177Z,0.70
2019-03-21T00:44:23.121Z,0.90
2019-03-21T00:46:49.860Z,0.87
2019-03-21T00:49:16.712Z,0.80
2019-03-21T00:51:43.650Z,0.90
2019-03-21T00:54:10.394Z,0.63
2019-03-21T00:56:37.939Z,1.00
2019-03-21T00:59:04.894Z,0.83
2019-03-21T01:01:32.045Z,0.90
2019-03-21T01:03:58.888Z,0.90
2019-03-21T01:06:25.832Z,0.80
2019-03-21T01:08:52.885Z,0.93
2019-03-21T01:11:19.723Z,0.97
2019-03-21T01:13:46.566Z,0.90
2019-03-21T01:16:13.516Z,0.93
2019-03-21T01:18:40.617Z,0.80
2019-03-21T01:21:07.507Z,0.87
2019-03-21T01:23:34.448Z,0.80
2019-03-21T01:26:06.413Z,0.80
2019-03-21T01:28:33.360Z,1.00
2019-03-21T01:31:00.308Z,0.87
2019-03-21T01:33:27.249Z,0.90
2019-03-21T01:35:54.092Z,0.83
2019-03-21T01:38:20.934Z,0.87
2019-03-21T01:40:52.490Z,1.40
2019-03-21T01:43:19.432Z,0.93
2019-03-21T01:45:46.173Z,1.00
2019-03-21T01:48:13.225Z,1.03
2019-03-21T01:50:40.270Z,1.00
2019-03-21T01:53:07.216Z,1.10
2019-03-21T01:55:34.161Z,0.90
2019-03-21T01:58:01.104Z,1.00
2019-03-21T02:00:28.869Z,1.20
2019-03-21T02:02:55.819Z,1.17
2019-03-21T02:05:23.479Z,1.10
2019-03-21T02:07:50.423Z,1.20
2019-03-21T02:10:17.368Z,1.30
2019-03-21T02:12:44.312Z,1.10
2019-03-21T02:15:12.047Z,1.20
2019-03-21T02:17:38.919Z,0.93
2019-03-21T02:20:05.865Z,1.30
2019-03-21T02:22:32.714Z,1.33
2019-03-21T02:24:59.553Z,1.40
2019-03-21T02:27:26.495Z,1.60
2019-03-21T02:29:53.341Z,1.27
2019-03-21T02:32:20.185Z,1.20
2019-03-21T02:34:46.924Z,1.40
2019-03-21T02:37:13.664Z,1.20
2019-03-21T02:39:40.504Z,1.10
2019-03-21T02:42:07.248Z,1.50
2019-03-21T02:44:34.106Z,1.43
2019-03-21T02:47:00.931Z,1.27
2019-03-21T02:49:28.592Z,1.30
2019-03-21T02:51:55.338Z,1.60
2019-03-21T02:54:22.185Z,1.43
2019-03-21T02:56:49.121Z,1.47
2019-03-21T02:59:16.070Z,1.43
2019-03-21T03:01:43.116Z,1.57
2019-03-21T03:04:10.160Z,1.57
2019-03-21T03:06:37.006Z,1.20
2019-03-21T03:09:03.969Z,1.53
2019-03-21T03:11:30.898Z,1.70
2019-03-21T03:13:57.683Z,1.67
2019-03-21T03:16:25.244Z,2.17
2019-03-21T03:18:52.755Z,1.67
2019-03-21T03:21:19.510Z,1.30
2019-03-21T03:23:46.251Z,1.87
2019-03-21T03:26:13.091Z,1.60
2019-03-21T03:28:41.356Z,1.50
2019-03-21T03:31:08.323Z,1.30
2019-03-21T03:33:35.251Z,1.90
2019-03-21T03:36:03.137Z,1.50
2019-03-21T03:38:30.075Z,1.90
2019-03-21T03:40:59.440Z,1.70
2019-03-21T03:43:26.206Z,2.00
2019-03-21T03:45:53.151Z,1.47
2019-03-21T03:48:21.028Z,1.83
2019-03-21T03:50:48.891Z,1.77
2019-03-21T03:53:15.930Z,1.90
2019-03-21T03:55:44.003Z,1.87
2019-03-21T03:58:13.635Z,1.80
2019-03-21T04:00:41.484Z,1.97
2019-03-21T04:03:09.254Z,1.60
2019-03-21T04:05:37.007Z,2.07
2019-03-21T04:08:04.599Z,2.00
2019-03-21T04:10:31.409Z,1.60
2019-03-21T04:12:58.147Z,2.17
2019-03-21T04:15:25.812Z,1.83
2019-03-21T04:17:52.758Z,2.10
2019-03-21T04:20:20.423Z,1.60
2019-03-21T04:22:47.265Z,2.33
2019-03-21T04:25:17.074Z,1.80
2019-03-21T04:27:43.927Z,2.23
2019-03-21T04:30:12.293Z,1.83
2019-03-21T04:32:39.138Z,2.20
2019-03-21T04:35:06.696Z,2.17
2019-03-21T04:37:33.949Z,2.10
2019-03-21T04:40:01.514Z,2.43
2019-03-21T04:42:28.355Z,1.90
2019-03-21T04:44:55.403Z,2.53
2019-03-21T04:47:22.241Z,2.27
2019-03-21T04:49:49.187Z,2.67
2019-03-21T04:52:15.932Z,1.80
2019-03-21T04:54:42.670Z,3.20
2019-03-21T04:57:09.512Z,2.70
2019-03-21T04:59:36.253Z,2.00
2019-03-21T05:02:03.919Z,2.53
2019-03-21T05:04:30.861Z,2.60
2019-03-21T05:06:57.808Z,3.00
2019-03-21T05:09:24.648Z,1.80
2019-03-21T05:11:51.391Z,2.63
2019-03-21T05:14:19.053Z,2.23
2019-03-21T05:16:46.813Z,2.60
2019-03-21T05:19:13.659Z,2.77
2019-03-21T05:21:40.397Z,2.57
2019-03-21T05:24:07.346Z,2.43
2019-03-21T05:26:34.080Z,2.57
2019-03-21T05:29:01.645Z,2.63
2019-03-21T05:31:28.603Z,2.40
2019-03-21T05:33:55.295Z,2.93
2019-03-21T05:36:22.892Z,3.13
2019-03-21T05:38:49.630Z,3.13
2019-03-21T05:41:16.353Z,2.90
2019-03-21T05:43:46.171Z,2.73
2019-03-21T05:46:12.919Z,2.80
2019-03-21T05:48:39.773Z,2.77
2019-03-21T05:51:06.609Z,2.87
2019-03-21T05:53:33.462Z,3.43
2019-03-21T05:56:00.298Z,3.30
2019-03-21T05:58:27.139Z,3.00
2019-03-21T06:00:54.865Z,3.03
2019-03-21T06:03:21.686Z,2.20
2019-03-21T06:05:50.319Z,2.97
2019-03-21T06:08:19.973Z,2.87
2019-03-21T06:10:46.782Z,2.87
2019-03-21T06:13:14.062Z,3.10
2019-03-21T06:15:41.536Z,3.23
2019-03-21T06:21:33.078Z,3.75
2019-03-21T06:26:56.383Z,4.55
2019-03-21T06:29:23.120Z,3.20
2019-03-21T06:31:50.607Z,3.40
2019-03-21T06:34:17.306Z,3.23
2019-03-21T06:36:45.504Z,2.80
2019-03-21T06:39:13.220Z,3.90
2019-03-21T06:41:40.021Z,3.27
2019-03-21T06:44:06.732Z,2.53
2019-03-21T06:46:33.570Z,2.87
2019-03-21T06:49:00.980Z,3.50
2019-03-21T06:51:27.884Z,3.00
2019-03-21T06:53:54.695Z,3.43
2019-03-21T06:56:22.226Z,3.77
2019-03-21T06:58:49.058Z,3.50
2019-03-21T07:01:16.893Z,3.10
2019-03-21T07:03:44.008Z,3.90
2019-03-21T07:06:10.730Z,3.50
2019-03-21T07:08:37.418Z,3.67
2019-03-21T07:11:04.186Z,3.40
2019-03-21T07:13:31.711Z,3.23
2019-03-21T07:16:00.602Z,2.97
2019-03-21T07:18:28.399Z,3.77
2019-03-21T07:20:55.147Z,3.40
2019-03-21T07:23:21.886Z,3.40
2019-03-21T07:25:48.926Z,3.63
2019-03-21T07:28:15.716Z,3.77
2019-03-21T07:30:43.190Z,3.40
2019-03-21T07:33:10.389Z,3.37
2019-03-21T07:35:37.191Z,2.90
2019-03-21T07:38:04.131Z,3.60
2019-03-21T07:40:30.977Z,3.40
2019-03-21T07:42:58.525Z,3.43
2019-03-21T07:45:25.969Z,3.47
2019-03-21T07:47:52.725Z,3.77
2019-03-21T07:50:20.762Z,3.63
2019-03-21T07:52:48.520Z,3.30
2019-03-21T07:55:15.367Z,3.30
2019-03-21T07:57:42.437Z,3.40
2019-03-21T08:00:14.193Z,3.67
2019-03-21T08:02:41.826Z,4.13
2019-03-21T08:05:08.769Z,3.83
2019-03-21T08:07:35.611Z,3.67
2019-03-21T08:10:02.732Z,4.03
2019-03-21T08:12:29.427Z,3.60
2019-03-21T08:14:56.855Z,3.87
2019-03-21T08:17:23.604Z,3.30
2019-03-21T08:19:50.349Z,3.60
2019-03-21T08:22:17.134Z,4.23
2019-03-21T08:24:46.309Z,3.67
2019-03-21T08:27:13.898Z,3.20
2019-03-21T08:29:40.714Z,3.63
2019-03-21T08:32:08.187Z,3.47
2019-03-21T08:34:34.969Z,3.93
2019-03-21T08:37:01.912Z,4.20
2019-03-21T08:39:29.049Z,4.13
2019-03-21T08:41:55.998Z,4.77
2019-03-21T08:44:22.833Z,4.40
2019-03-21T08:46:49.770Z,4.30
2019-03-21T08:49:16.750Z,3.63
2019-03-21T08:51:43.575Z,3.57
2019-03-21T08:54:10.536Z,3.23
2019-03-21T08:56:37.274Z,4.33
2019-03-21T08:59:03.972Z,5.00
2019-03-21T09:01:33.895Z,4.37
2019-03-21T09:04:01.504Z,4.43
2019-03-21T09:06:28.286Z,4.20
2019-03-21T09:08:55.318Z,3.73
2019-03-21T09:11:22.004Z,3.93
2019-03-21T09:13:49.816Z,4.47
2019-03-21T09:16:17.774Z,4.53
2019-03-21T09:18:44.819Z,3.60
2019-03-21T09:21:19.510Z,3.87
2019-03-21T09:23:39.285Z,4.07
2019-03-21T09:26:06.048Z,3.73
2019-03-21T09:28:33.160Z,3.47
2019-03-21T09:30:59.963Z,3.77
2019-03-21T09:33:26.674Z,3.90
2019-03-21T09:35:53.426Z,4.27
2019-03-21T09:38:21.235Z,3.67
2019-03-21T09:40:48.734Z,3.70
2019-03-21T09:43:15.534Z,3.40
2019-03-21T09:45:43.299Z,3.50
2019-03-21T09:48:10.099Z,3.53
2019-03-21T09:50:36.901Z,3.70
2019-03-21T09:53:03.737Z,3.60
2019-03-21T09:55:30.536Z,3.50
2019-03-21T09:58:00.402Z,3.70
2019-03-21T10:00:28.403Z,4.30
2019-03-21T10:02:56.249Z,3.40
2019-03-21T10:05:23.268Z,3.13
2019-03-21T10:07:50.702Z,3.80
2019-03-21T10:10:17.440Z,3.00
2019-03-21T10:12:46.855Z,3.03
2019-03-21T10:15:14.360Z,3.77
2019-03-21T10:17:41.285Z,3.33
2019-03-21T10:20:08.268Z,3.40
2019-03-21T10:22:36.122Z,3.07
2019-03-21T10:25:02.896Z,3.73
2019-03-21T10:27:29.875Z,3.40
2019-03-21T10:29:56.676Z,3.50
2019-03-21T10:32:23.545Z,3.43
2019-03-21T10:34:52.896Z,3.57
2019-03-21T10:37:19.718Z,3.43
2019-03-21T10:39:46.467Z,3.43
2019-03-21T10:42:13.274Z,3.17
2019-03-21T10:44:40.732Z,3.10
2019-03-21T10:47:08.185Z,3.60
2019-03-21T10:49:36.030Z,3.57
2019-03-21T10:52:02.930Z,2.70
2019-03-21T10:54:31.370Z,3.93
2019-03-21T10:56:59.133Z,3.40
2019-03-21T10:59:26.652Z,3.00
2019-03-21T11:01:53.370Z,3.07
2019-03-21T11:04:20.790Z,3.23
2019-03-21T11:06:48.349Z,3.60
2019-03-21T11:09:15.473Z,3.17
2019-03-21T11:11:42.289Z,2.70
2019-03-21T11:14:09.028Z,2.87
2019-03-21T11:16:35.876Z,2.77
2019-03-21T11:19:02.680Z,2.80
2019-03-21T11:21:29.390Z,3.10
2019-03-21T11:23:56.874Z,2.80
2019-03-21T11:26:25.543Z,2.77
2019-03-21T11:28:54.350Z,2.90
2019-03-21T11:31:21.439Z,2.20
2019-03-21T11:33:48.463Z,2.80
2019-03-21T11:36:15.343Z,2.63
2019-03-21T11:38:42.092Z,2.63
2019-03-21T11:41:08.856Z,2.17
2019-03-21T11:43:36.657Z,2.20
2019-03-21T11:46:03.529Z,2.10
2019-03-21T11:48:30.802Z,1.93
2019-03-21T11:50:57.598Z,2.23
2019-03-21T11:53:24.529Z,2.00
2019-03-21T11:55:51.612Z,1.80
2019-03-21T11:58:18.352Z,2.03
2019-03-21T12:00:45.394Z,2.07
2019-03-21T12:03:19.109Z,2.23
2019-03-21T12:05:46.577Z,1.90
2019-03-21T12:08:13.666Z,1.83
2019-03-21T12:10:41.245Z,1.80
2019-03-21T12:13:08.326Z,1.80
2019-03-21T12:15:35.312Z,1.50
2019-03-21T12:18:06.066Z,1.77
2019-03-21T12:20:32.907Z,1.77
2019-03-21T12:23:00.541Z,1.90
2019-03-21T12:25:28.188Z,1.73
2019-03-21T12:27:54.942Z,1.90
2019-03-21T12:30:31.667Z,1.60
2019-03-21T12:32:58.428Z,1.60
2019-03-21T12:35:25.724Z,1.93
2019-03-21T12:37:53.377Z,1.80
2019-03-21T12:40:20.279Z,1.60
2019-03-21T12:42:47.787Z,1.87
2019-03-21T12:45:14.934Z,1.53
2019-03-21T12:47:45.114Z,1.80
2019-03-21T12:50:11.916Z,1.70
2019-03-21T12:52:41.505Z,1.70
2019-03-21T12:55:05.579Z,1.80
2019-03-21T12:57:32.290Z,1.77
2019-03-21T12:59:59.005Z,2.03
2019-03-21T13:04:58.046Z,1.70
2019-03-21T13:07:13.279Z,1.60
2019-03-21T13:07:24.886Z,1.30
2019-03-21T13:09:52.898Z,1.60
2019-03-21T13:12:19.718Z,1.37
2019-03-21T13:14:46.566Z,1.53
2019-03-21T13:17:13.338Z,1.80
2019-03-21T13:19:40.131Z,1.33
2019-03-21T13:22:07.184Z,1.50
2019-03-21T13:24:34.174Z,1.63
2019-03-21T13:27:01.252Z,1.70
2019-03-21T13:29:28.134Z,1.63
2019-03-21T13:31:54.879Z,1.70
2019-03-21T13:34:21.595Z,1.80
2019-03-21T13:36:48.776Z,1.40
2019-03-21T13:39:20.045Z,1.80
2019-03-21T13:41:47.528Z,1.57
2019-03-21T13:44:14.446Z,1.70
2019-03-21T13:46:41.297Z,1.77
2019-03-21T13:49:08.248Z,1.60
2019-03-21T13:51:35.049Z,1.70
2019-03-21T13:54:02.166Z,1.50
2019-03-21T13:56:37.754Z,1.90
2019-03-21T13:58:56.115Z,1.67
2019-03-21T14:01:22.834Z,1.30
2019-03-21T14:03:49.572Z,1.67
2019-03-21T14:06:16.690Z,1.47
2019-03-21T14:08:43.387Z,2.10
2019-03-21T14:11:11.538Z,1.70
2019-03-21T14:13:40.202Z,1.70
2019-03-21T14:16:07.187Z,2.13
2019-03-21T14:18:34.063Z,1.80
2019-03-21T14:21:00.823Z,1.93
2019-03-21T14:23:27.863Z,1.80
2019-03-21T14:25:55.665Z,1.87
2019-03-21T14:28:23.462Z,1.80
2019-03-21T14:30:50.671Z,1.67
2019-03-21T14:33:17.472Z,1.70
2019-03-21T14:35:44.582Z,1.60
2019-03-21T14:38:13.394Z,1.70
2019-03-21T14:40:39.012Z,1.80
2019-03-21T14:43:05.720Z,1.70
2019-03-21T14:45:32.487Z,1.63
2019-03-21T14:47:59.971Z,1.50
2019-03-21T14:50:28.942Z,1.53
2019-03-21T14:52:55.838Z,1.30
2019-03-21T14:55:22.671Z,1.80
2019-03-21T14:57:49.475Z,1.70
2019-03-21T15:00:17.429Z,1.60
2019-03-21T15:02:44.196Z,1.50
2019-03-21T15:05:11.679Z,1.57
2019-03-21T15:07:38.645Z,1.50
2019-03-21T15:10:06.326Z,1.90
2019-03-21T15:12:33.987Z,1.60
2019-03-21T15:15:01.591Z,1.90
2019-03-21T15:17:28.288Z,1.70
2019-03-21T15:19:55.098Z,1.30
2019-03-21T15:22:21.800Z,2.00
2019-03-21T15:24:49.327Z,1.70
2019-03-21T15:27:16.087Z,1.60
2019-03-21T15:29:42.959Z,1.63
2019-03-21T15:32:09.682Z,1.40
2019-03-21T15:34:36.575Z,1.37
2019-03-21T15:37:03.304Z,1.73
2019-03-21T15:39:30.089Z,1.80
2019-03-21T15:41:56.864Z,1.60
2019-03-21T15:44:23.636Z,1.50
2019-03-21T15:46:50.423Z,1.40
2019-03-21T15:49:17.191Z,1.50
2019-03-21T15:51:43.998Z,1.30
2019-03-21T15:54:10.767Z,1.43
2019-03-21T15:56:37.719Z,1.63
2019-03-21T15:59:04.435Z,1.47
2019-03-21T16:01:31.124Z,1.70
2019-03-21T16:03:58.012Z,1.80
2019-03-21T16:06:26.991Z,1.70
2019-03-21T16:08:54.500Z,1.40
2019-03-21T16:11:21.390Z,1.40
2019-03-21T16:13:48.957Z,1.47
2019-03-21T16:16:15.762Z,1.67
2019-03-21T16:18:43.351Z,1.40
2019-03-21T16:21:10.261Z,1.37
2019-03-21T16:23:36.978Z,1.40
2019-03-21T16:26:03.718Z,1.43
2019-03-21T16:28:30.606Z,1.50
2019-03-21T16:30:57.477Z,1.37
2019-03-21T16:33:24.486Z,1.83
2019-03-21T16:35:51.983Z,1.70
2019-03-21T16:38:18.682Z,1.30
2019-03-21T16:40:45.561Z,1.30
2019-03-21T16:43:13.187Z,1.60
2019-03-21T16:45:40.042Z,1.63
2019-03-21T16:48:09.080Z,1.40
2019-03-21T16:50:33.919Z,1.37
2019-03-21T16:53:00.966Z,1.43
2019-03-21T16:55:28.827Z,1.60
2019-03-21T16:57:56.691Z,1.57
2019-03-21T17:00:23.944Z,1.60
2019-03-21T17:02:51.836Z,1.80
2019-03-21T17:05:22.018Z,1.60
2019-03-21T17:07:46.316Z,1.53
2019-03-21T17:10:13.836Z,1.40
2019-03-21T17:12:40.896Z,1.67
2019-03-21T17:15:07.697Z,1.60
2019-03-21T17:17:34.438Z,1.77
2019-03-21T17:20:03.749Z,1.57
2019-03-21T17:22:28.394Z,1.70
2019-03-21T17:24:56.474Z,2.13
2019-03-21T17:27:23.325Z,2.03
2019-03-21T17:29:51.682Z,1.70
2019-03-21T17:32:19.665Z,2.27
2019-03-21T17:34:46.588Z,2.00
2019-03-21T17:37:14.207Z,1.87
2019-03-21T17:39:40.937Z,1.70
2019-03-21T17:42:07.801Z,2.17
2019-03-21T17:44:34.617Z,1.80
2019-03-21T17:47:01.465Z,1.70
2019-03-21T17:49:28.894Z,2.00
2019-03-21T17:51:56.422Z,1.70
2019-03-21T17:54:23.111Z,1.70
2019-03-21T17:56:50.052Z,1.60
2019-03-21T17:59:17.808Z,1.80
2019-03-21T18:01:44.855Z,1.70
2019-03-21T18:04:12.401Z,1.80
2019-03-21T18:06:39.310Z,1.87
2019-03-21T18:09:06.334Z,1.90
2019-03-21T18:11:33.975Z,1.90
2019-03-21T18:14:02.263Z,2.20
2019-03-21T18:16:29.601Z,1.63
2019-03-21T18:18:56.733Z,1.60
2019-03-21T18:21:23.589Z,1.60
2019-03-21T18:23:50.584Z,2.00
2019-03-21T18:26:18.127Z,1.40
2019-03-21T18:28:45.884Z,1.20
2019-03-21T18:31:12.612Z,1.27
2019-03-21T18:33:42.829Z,0.90
2019-03-21T18:36:10.109Z,0.93
2019-03-21T18:38:37.737Z,0.80
2019-03-21T18:41:04.684Z,0.60
2019-03-21T18:43:31.931Z,0.77
2019-03-21T18:46:00.316Z,0.77
2019-03-21T18:48:27.359Z,0.50
2019-03-21T18:50:54.207Z,0.60
2019-03-21T18:53:21.148Z,0.50
2019-03-21T18:55:48.093Z,0.60
2019-03-21T18:58:15.038Z,0.60
2019-03-21T19:00:43.007Z,0.40
2019-03-21T19:03:09.749Z,0.40
2019-03-21T19:05:38.537Z,0.47
2019-03-21T19:08:06.719Z,0.60
2019-03-21T19:10:34.389Z,0.53
2019-03-21T19:13:01.332Z,0.63
2019-03-21T19:15:28.412Z,0.60
2019-03-21T19:17:55.314Z,0.60
2019-03-21T19:20:22.031Z,0.50
2019-03-21T19:22:49.406Z,0.47
2019-03-21T19:25:18.920Z,0.50
2019-03-21T19:27:43.634Z,0.73
2019-03-21T19:30:16.553Z,0.70
2019-03-21T19:32:44.046Z,0.40
2019-03-21T19:35:11.405Z,0.43
2019-03-21T19:37:38.244Z,0.47
2019-03-21T19:40:05.195Z,0.50
2019-03-21T19:42:31.932Z,0.67
2019-03-21T19:44:58.670Z,0.47
2019-03-21T19:47:30.292Z,0.60
2019-03-21T19:49:53.175Z,0.50
2019-03-21T19:52:19.911Z,0.50
2019-03-21T19:54:46.739Z,0.30
2019-03-21T19:57:13.809Z,0.90
2019-03-21T19:59:41.266Z,0.33
2019-03-21T20:02:08.108Z,0.50
2019-03-21T20:04:34.850Z,0.40
2019-03-21T20:07:02.513Z,0.43
2019-03-21T20:09:29.459Z,0.40
2019-03-21T20:11:56.241Z,0.47
2019-03-21T20:14:23.249Z,0.50
2019-03-21T20:16:49.969Z,0.40
2019-03-21T20:19:16.748Z,0.50
2019-03-21T20:21:48.138Z,0.50
2019-03-21T20:24:11.801Z,0.50
2019-03-21T20:26:39.813Z,0.43
2019-03-21T20:29:07.685Z,0.50
2019-03-21T20:31:34.627Z,0.40
2019-03-21T20:34:01.340Z,0.77
2019-03-21T20:36:28.507Z,0.40
2019-03-21T20:38:56.109Z,0.30
2019-03-21T20:41:23.335Z,0.33
2019-03-21T20:43:52.047Z,0.20
2019-03-21T20:46:19.071Z,0.20
2019-03-21T20:48:45.913Z,0.20
2019-03-21T20:51:12.751Z,0.70
2019-03-21T20:53:39.490Z,0.60
2019-03-21T20:56:06.335Z,0.83
2019-03-21T20:58:33.073Z,0.60
2019-03-21T21:00:59.924Z,0.70
2019-03-21T21:03:26.866Z,0.47
2019-03-21T21:05:54.219Z,0.60
2019-03-21T21:08:22.186Z,0.47
2019-03-21T21:10:49.027Z,0.40
2019-03-21T21:13:15.774Z,0.40
2019-03-21T21:15:42.510Z,0.40
2019-03-21T21:18:09.253Z,0.40
2019-03-21T21:20:36.198Z,0.67
2019-03-21T21:23:04.313Z,0.80
2019-03-21T21:25:31.213Z,0.47
2019-03-21T21:27:58.057Z,0.70
2019-03-21T21:30:25.615Z,0.40
2019-03-21T21:32:53.381Z,0.40
2019-03-21T21:35:20.742Z,0.50
2019-03-21T21:37:47.958Z,0.67
2019-03-21T21:40:16.421Z,0.70
2019-03-21T21:42:44.335Z,1.10
2019-03-21T21:45:11.517Z,0.90
2019-03-21T21:47:38.329Z,0.53
2019-03-21T21:50:05.536Z,0.80
2019-03-21T21:52:41.566Z,0.70
2019-03-21T21:54:59.982Z,0.50
2019-03-21T21:57:27.032Z,0.60
2019-03-21T21:59:53.757Z,0.80
2019-03-21T22:02:20.601Z,0.80
2019-03-21T22:04:47.377Z,0.67
2019-03-21T22:07:14.180Z,0.67
2019-03-21T22:09:40.898Z,0.60
2019-03-21T22:12:07.665Z,0.57
2019-03-21T22:14:34.383Z,0.60
2019-03-21T22:17:01.097Z,0.80
2019-03-21T22:19:27.885Z,0.60
2019-03-21T22:21:54.641Z,0.50
2019-03-21T22:24:21.341Z,0.70
2019-03-21T22:26:48.868Z,0.73
2019-03-21T22:29:15.586Z,0.60
2019-03-21T22:31:43.094Z,0.63
2019-03-21T22:34:09.857Z,0.70
2019-03-21T22:36:48.667Z,0.70
2019-03-21T22:39:03.568Z,0.73
2019-03-21T22:41:30.307Z,0.70
2019-03-21T22:43:57.027Z,0.60
2019-03-21T22:46:23.788Z,0.90
2019-03-21T22:48:50.470Z,0.50
2019-03-21T22:51:17.268Z,0.50
2019-03-21T22:53:44.009Z,0.90
2019-03-21T22:56:10.749Z,0.90
2019-03-21T22:58:37.596Z,0.90
2019-03-21T23:01:04.543Z,0.90
2019-03-21T23:03:32.290Z,0.60
2019-03-21T23:05:59.043Z,0.80
2019-03-21T23:08:25.799Z,0.63
2019-03-21T23:10:52.725Z,0.70
2019-03-21T23:13:19.569Z,0.80
2019-03-21T23:15:47.948Z,1.23
2019-03-21T23:18:14.692Z,1.00
2019-03-21T23:20:41.443Z,1.00
2019-03-21T23:23:08.274Z,0.90
2019-03-21T23:25:35.020Z,0.90
2019-03-21T23:28:01.691Z,0.80
2019-03-21T23:30:29.314Z,1.10
2019-03-21T23:32:56.055Z,0.83
2019-03-21T23:35:22.797Z,1.20
2019-03-21T23:37:49.637Z,0.77
2019-03-21T23:40:16.378Z,0.80
2019-03-21T23:42:43.221Z,1.20
2019-03-21T23:45:10.065Z,1.10
2019-03-21T23:47:36.864Z,1.40
2019-03-21T23:50:04.467Z,0.70
2019-03-21T23:52:31.207Z,1.40
2019-03-21T23:54:57.947Z,0.83
2019-03-21T23:57:24.791Z,1.17
2019-03-21T23:59:51.532Z,1.10
